createdAt,value
2023-05-09T00:00:12.648Z,13.57
2023-05-09T00:02:40.324Z,13.59
2023-05-09T00:05:07.191Z,13.46
2023-05-09T00:07:33.830Z,13.54
2023-05-09T00:10:01.118Z,13.57
2023-05-09T00:12:28.187Z,13.50
2023-05-09T00:14:55.080Z,13.52
2023-05-09T00:17:21.572Z,13.57
2023-05-09T00:19:48.902Z,13.48
2023-05-09T00:22:16.265Z,13.46
2023-05-09T00:24:42.912Z,13.44
2023-05-09T00:27:09.452Z,13.47
2023-05-09T00:29:36.067Z,13.42
2023-05-09T00:32:02.557Z,13.34
2023-05-09T00:34:29.016Z,13.41
2023-05-09T00:36:55.428Z,13.42
2023-05-09T00:39:21.818Z,13.45
2023-05-09T00:41:48.310Z,13.31
2023-05-09T00:44:14.761Z,13.41
2023-05-09T00:46:41.576Z,13.46
2023-05-09T00:49:08.055Z,13.41
2023-05-09T00:51:36.760Z,13.43
2023-05-09T00:54:03.282Z,13.39
2023-05-09T00:56:29.807Z,13.40
2023-05-09T00:58:56.310Z,13.41
2023-05-09T01:01:23.892Z,13.42
2023-05-09T01:03:51.498Z,13.42
2023-05-09T01:06:29.188Z,13.43
2023-05-09T01:09:08.393Z,13.36
2023-05-09T01:11:42.716Z,13.38
2023-05-09T01:14:39.901Z,13.42
2023-05-09T01:17:14.432Z,13.42
2023-05-09T01:20:01.221Z,13.45
2023-05-09T01:22:33.673Z,13.39
2023-05-09T01:25:26.860Z,13.39
2023-05-09T01:28:11.940Z,13.43
2023-05-09T01:30:40.303Z,13.44
2023-05-09T01:33:08.128Z,13.30
2023-05-09T01:35:37.903Z,13.36
2023-05-09T01:38:10.281Z,13.33
2023-05-09T01:40:38.676Z,13.23
2023-05-09T01:43:08.015Z,13.36
2023-05-09T01:45:35.404Z,13.35
2023-05-09T01:48:02.808Z,13.36
2023-05-09T01:50:30.302Z,13.36
2023-05-09T01:53:01.405Z,13.26
2023-05-09T01:55:34.130Z,13.25
2023-05-09T01:58:03.415Z,13.25
2023-05-09T02:00:31.149Z,13.26
2023-05-09T02:02:58.018Z,13.33
2023-05-09T02:05:28.491Z,13.23
2023-05-09T02:07:56.464Z,13.17
2023-05-09T02:10:23.685Z,13.26
2023-05-09T02:12:50.216Z,13.24
2023-05-09T02:15:16.882Z,13.15
2023-05-09T02:17:43.378Z,13.19
2023-05-09T02:20:10.337Z,13.18
2023-05-09T02:22:37.557Z,12.96
2023-05-09T02:25:04.603Z,13.12
2023-05-09T02:27:33.933Z,13.12
2023-05-09T02:30:04.046Z,13.12
2023-05-09T02:32:33.814Z,13.08
2023-05-09T02:35:01.891Z,13.07
2023-05-09T02:37:28.806Z,13.09
2023-05-09T02:39:55.962Z,13.15
2023-05-09T02:42:24.769Z,13.10
2023-05-09T02:44:54.567Z,13.12
2023-05-09T02:47:21.929Z,13.05
2023-05-09T02:49:48.484Z,13.05
2023-05-09T02:52:15.127Z,13.06
2023-05-09T02:54:41.734Z,13.02
2023-05-09T02:57:08.422Z,13.07
2023-05-09T02:59:35.068Z,12.99
2023-05-09T03:02:01.712Z,13.12
2023-05-09T03:04:28.317Z,13.03
2023-05-09T03:06:54.840Z,13.15
2023-05-09T03:09:21.254Z,12.97
2023-05-09T03:11:47.793Z,12.97
2023-05-09T03:14:14.305Z,12.99
2023-05-09T03:16:40.973Z,13.00
2023-05-09T03:19:07.575Z,13.00
2023-05-09T03:21:34.179Z,13.04
2023-05-09T03:24:00.665Z,13.07
2023-05-09T03:26:27.168Z,13.05
2023-05-09T03:28:53.855Z,12.93
2023-05-09T03:31:20.504Z,12.90
2023-05-09T03:33:47.349Z,12.99
2023-05-09T03:36:16.974Z,12.99
2023-05-09T03:38:43.666Z,13.01
2023-05-09T03:41:10.259Z,13.06
2023-05-09T03:43:36.681Z,12.99
2023-05-09T03:46:03.096Z,12.95
2023-05-09T03:48:29.657Z,12.94
2023-05-09T03:50:56.187Z,13.02
2023-05-09T03:53:23.325Z,13.04
2023-05-09T03:55:49.873Z,13.02
2023-05-09T03:58:16.358Z,12.93
2023-05-09T04:00:43.041Z,13.09
2023-05-09T04:03:09.676Z,13.11
2023-05-09T04:05:36.452Z,13.09
2023-05-09T04:08:03.924Z,13.06
2023-05-09T04:10:30.995Z,13.06
2023-05-09T04:12:57.624Z,13.09
2023-05-09T04:15:24.477Z,13.15
2023-05-09T04:17:51.293Z,13.21
2023-05-09T04:20:17.802Z,13.18
2023-05-09T04:22:46.725Z,13.19
2023-05-09T04:25:13.876Z,13.17
2023-05-09T04:27:40.571Z,13.17
2023-05-09T04:30:07.734Z,13.22
2023-05-09T04:32:34.322Z,13.24
2023-05-09T04:35:00.836Z,13.27
2023-05-09T04:37:27.591Z,13.27
2023-05-09T04:39:54.020Z,13.33
2023-05-09T04:42:20.648Z,13.32
2023-05-09T04:44:47.100Z,13.25
2023-05-09T04:47:13.604Z,13.33
2023-05-09T04:49:40.435Z,13.26
2023-05-09T04:52:06.907Z,13.24
2023-05-09T04:54:33.388Z,13.31
2023-05-09T04:57:09.949Z,13.26
2023-05-09T04:59:40.640Z,13.24
2023-05-09T05:02:07.141Z,13.20
2023-05-09T05:04:33.944Z,13.21
2023-05-09T05:07:00.438Z,13.14
2023-05-09T05:09:26.931Z,13.16
2023-05-09T05:12:00.854Z,13.14
2023-05-09T05:14:29.079Z,13.20
2023-05-09T05:16:55.540Z,13.14
2023-05-09T05:19:22.138Z,13.22
2023-05-09T05:21:48.594Z,13.17
2023-05-09T05:24:15.063Z,12.99
2023-05-09T05:26:41.812Z,13.06
2023-05-09T05:29:08.601Z,12.94
2023-05-09T05:31:35.253Z,13.18
2023-05-09T05:34:01.983Z,12.99
2023-05-09T05:36:28.656Z,13.19
2023-05-09T05:38:55.101Z,13.14
2023-05-09T05:41:21.698Z,13.16
2023-05-09T05:43:48.281Z,13.12
2023-05-09T05:46:14.920Z,12.99
2023-05-09T05:48:41.635Z,13.06
2023-05-09T05:51:08.165Z,13.25
2023-05-09T05:53:34.641Z,13.26
2023-05-09T05:56:01.168Z,13.08
2023-05-09T05:58:27.680Z,13.10
2023-05-09T06:00:54.131Z,13.10
2023-05-09T06:03:20.978Z,13.06
2023-05-09T06:05:47.822Z,13.19
2023-05-09T06:08:14.357Z,13.09
2023-05-09T06:10:41.076Z,12.92
2023-05-09T06:13:07.657Z,13.03
2023-05-09T06:15:34.303Z,13.09
2023-05-09T06:18:00.870Z,13.10
2023-05-09T06:20:27.913Z,13.09
2023-05-09T06:22:54.617Z,13.06
2023-05-09T06:25:21.054Z,13.05
2023-05-09T06:27:47.600Z,13.03
2023-05-09T06:30:25.418Z,13.11
2023-05-09T06:32:53.704Z,12.97
2023-05-09T06:35:20.314Z,13.03
2023-05-09T06:37:48.791Z,13.01
2023-05-09T06:40:15.945Z,13.01
2023-05-09T06:42:42.599Z,12.81
2023-05-09T06:45:09.575Z,13.01
2023-05-09T06:47:36.158Z,12.71
2023-05-09T06:50:02.729Z,12.98
2023-05-09T06:52:29.339Z,13.11
2023-05-09T06:54:55.828Z,13.00
2023-05-09T06:57:22.548Z,12.78
2023-05-09T06:59:49.159Z,13.02
2023-05-09T07:02:15.652Z,13.03
2023-05-09T07:04:42.354Z,12.98
2023-05-09T07:07:09.051Z,12.95
2023-05-09T07:09:35.641Z,13.07
2023-05-09T07:12:02.286Z,12.98
2023-05-09T07:14:28.786Z,13.14
2023-05-09T07:17:02.161Z,12.96
2023-05-09T07:19:36.721Z,12.98
2023-05-09T07:22:03.328Z,13.04
2023-05-09T07:24:29.823Z,13.02
2023-05-09T07:26:56.287Z,12.78
2023-05-09T07:29:22.757Z,13.05
2023-05-09T07:31:49.354Z,13.06
2023-05-09T07:34:16.856Z,13.02
2023-05-09T07:36:43.655Z,13.10
2023-05-09T07:39:10.255Z,13.11
2023-05-09T07:41:36.769Z,13.15
2023-05-09T07:44:03.425Z,13.02
2023-05-09T07:46:30.091Z,12.99
2023-05-09T07:48:56.602Z,13.15
2023-05-09T07:51:23.166Z,13.09
2023-05-09T07:53:49.858Z,13.14
2023-05-09T07:56:16.378Z,13.01
2023-05-09T07:58:43.130Z,13.03
2023-05-09T08:01:09.594Z,13.02
2023-05-09T08:03:36.352Z,13.07
2023-05-09T08:06:03.053Z,13.11
2023-05-09T08:08:29.899Z,13.57
2023-05-09T08:10:56.672Z,13.22
2023-05-09T08:13:23.487Z,13.66
2023-05-09T08:15:50.292Z,13.62
2023-05-09T08:18:17.464Z,13.39
2023-05-09T08:20:44.284Z,13.37
2023-05-09T08:23:10.780Z,13.31
2023-05-09T08:25:37.395Z,13.36
2023-05-09T08:28:04.227Z,13.19
2023-05-09T08:30:30.749Z,13.28
2023-05-09T08:32:57.429Z,13.24
2023-05-09T08:35:24.115Z,13.27
2023-05-09T08:37:50.828Z,13.39
2023-05-09T08:40:17.754Z,13.39
2023-05-09T08:42:45.016Z,13.43
2023-05-09T08:45:13.430Z,13.26
2023-05-09T08:47:40.572Z,13.59
2023-05-09T08:50:08.578Z,13.52
2023-05-09T08:52:35.434Z,13.67
2023-05-09T08:55:03.343Z,13.32
2023-05-09T08:57:32.029Z,13.55
2023-05-09T08:59:59.069Z,13.49
2023-05-09T09:02:25.576Z,13.36
2023-05-09T09:04:52.120Z,13.47
2023-05-09T09:07:20.230Z,13.61
2023-05-09T09:09:48.824Z,13.55
2023-05-09T09:12:16.635Z,13.57
2023-05-09T09:14:49.951Z,13.41
2023-05-09T09:17:19.830Z,13.57
2023-05-09T09:19:50.128Z,13.53
2023-05-09T09:22:19.228Z,13.36
2023-05-09T09:24:46.147Z,13.43
2023-05-09T09:27:12.933Z,13.47
2023-05-09T09:29:39.575Z,13.51
2023-05-09T09:32:06.555Z,13.45
2023-05-09T09:34:33.196Z,13.72
2023-05-09T09:36:59.743Z,13.59
2023-05-09T09:39:27.537Z,13.58
2023-05-09T09:41:54.323Z,13.46
2023-05-09T09:44:22.243Z,13.81
2023-05-09T09:46:49.971Z,13.73
2023-05-09T09:49:21.281Z,13.71
2023-05-09T09:51:55.759Z,13.82
2023-05-09T09:54:22.851Z,13.78
2023-05-09T09:56:51.504Z,13.87
2023-05-09T09:59:20.228Z,13.85
2023-05-09T10:02:08.048Z,13.74
2023-05-09T10:04:37.149Z,13.55
2023-05-09T10:07:05.772Z,13.61
2023-05-09T10:09:34.095Z,13.72
2023-05-09T10:12:04.420Z,13.78
2023-05-09T10:14:34.816Z,13.73
2023-05-09T10:17:04.032Z,13.80
2023-05-09T10:19:31.526Z,13.81
2023-05-09T10:22:05.664Z,13.90
2023-05-09T10:24:43.625Z,13.73
2023-05-09T10:27:11.945Z,13.56
2023-05-09T10:29:45.745Z,13.66
2023-05-09T10:32:17.932Z,13.75
2023-05-09T10:34:49.211Z,13.66
2023-05-09T10:37:16.909Z,13.66
2023-05-09T10:39:44.135Z,13.68
2023-05-09T10:42:12.527Z,13.57
2023-05-09T10:44:39.148Z,13.68
2023-05-09T10:47:06.929Z,13.70
2023-05-09T10:49:36.323Z,13.75
2023-05-09T10:52:03.932Z,13.62
2023-05-09T10:54:31.399Z,13.61
2023-05-09T10:56:58.062Z,13.72
2023-05-09T10:59:43.722Z,13.69
2023-05-09T11:02:15.755Z,13.65
2023-05-09T11:04:42.388Z,13.64
2023-05-09T11:07:26.482Z,13.69
2023-05-09T11:10:07.417Z,13.80
2023-05-09T11:12:34.090Z,13.75
2023-05-09T11:15:08.219Z,13.77
2023-05-09T11:17:38.692Z,13.89
2023-05-09T11:20:06.845Z,13.82
2023-05-09T11:22:42.311Z,13.90
2023-05-09T11:25:10.927Z,13.58
2023-05-09T11:27:44.710Z,13.93
2023-05-09T11:30:16.633Z,13.78
2023-05-09T11:32:54.358Z,13.98
2023-05-09T11:35:22.781Z,13.96
2023-05-09T11:37:58.784Z,13.76
2023-05-09T11:40:26.162Z,13.84
2023-05-09T11:42:57.701Z,13.81
2023-05-09T11:45:27.988Z,13.79
2023-05-09T11:47:54.600Z,13.86
2023-05-09T11:50:21.236Z,13.70
2023-05-09T11:52:48.724Z,13.69
2023-05-09T11:55:20.645Z,13.52
2023-05-09T11:57:50.033Z,13.85
2023-05-09T12:00:18.695Z,13.83
2023-05-09T12:02:45.722Z,13.67
2023-05-09T12:05:15.305Z,13.90
2023-05-09T12:07:42.374Z,13.87
2023-05-09T12:10:10.772Z,13.83
2023-05-09T12:12:43.596Z,13.54
2023-05-09T12:15:11.237Z,13.45
2023-05-09T12:17:38.404Z,13.56
2023-05-09T12:20:05.953Z,13.69
2023-05-09T12:22:33.289Z,13.32
2023-05-09T12:25:01.388Z,13.38
2023-05-09T12:27:29.633Z,13.41
2023-05-09T12:29:56.921Z,13.61
2023-05-09T12:32:24.186Z,13.46
2023-05-09T12:34:51.210Z,13.51
2023-05-09T12:37:19.301Z,13.79
2023-05-09T12:40:05.718Z,13.55
2023-05-09T12:42:33.364Z,13.76
2023-05-09T12:45:02.132Z,13.81
2023-05-09T12:47:30.084Z,13.74
2023-05-09T12:50:01.575Z,13.95
2023-05-09T12:52:38.116Z,13.82
2023-05-09T12:55:13.692Z,13.54
2023-05-09T12:57:41.172Z,13.48
2023-05-09T13:00:09.966Z,13.37
2023-05-09T13:02:38.267Z,13.33
2023-05-09T13:05:05.587Z,13.48
2023-05-09T13:07:49.921Z,13.32
2023-05-09T13:10:23.963Z,13.13
2023-05-09T13:12:51.626Z,12.98
2023-05-09T13:15:20.301Z,13.12
2023-05-09T13:17:48.966Z,13.38
2023-05-09T13:20:16.073Z,13.19
2023-05-09T13:22:43.118Z,13.04
2023-05-09T13:25:10.380Z,13.36
2023-05-09T13:27:37.492Z,13.21
2023-05-09T13:30:05.411Z,13.21
2023-05-09T13:32:32.055Z,13.30
2023-05-09T13:34:58.645Z,13.33
2023-05-09T13:37:26.673Z,13.15
2023-05-09T13:39:53.164Z,13.27
2023-05-09T13:42:19.610Z,12.98
2023-05-09T13:44:46.314Z,13.00
2023-05-09T13:47:13.000Z,12.94
2023-05-09T13:49:39.503Z,12.93
2023-05-09T13:52:06.150Z,13.01
2023-05-09T13:54:32.755Z,13.04
2023-05-09T13:56:59.248Z,13.15
2023-05-09T13:59:25.720Z,12.83
2023-05-09T14:01:52.250Z,13.15
2023-05-09T14:04:18.823Z,13.39
2023-05-09T14:07:52.514Z,13.15
2023-05-09T14:10:19.172Z,13.07
2023-05-09T14:12:45.927Z,13.05
2023-05-09T14:15:12.939Z,13.13
2023-05-09T14:17:39.634Z,13.35
2023-05-09T14:20:06.911Z,13.15
2023-05-09T14:22:33.505Z,13.21
2023-05-09T14:25:00.018Z,13.15
2023-05-09T14:27:26.671Z,13.35
2023-05-09T14:29:53.316Z,13.18
2023-05-09T14:32:20.073Z,13.21
2023-05-09T14:34:47.244Z,13.30
2023-05-09T14:37:15.693Z,13.01
2023-05-09T14:39:43.986Z,12.95
2023-05-09T14:42:11.357Z,13.04
2023-05-09T14:44:38.491Z,13.14
2023-05-09T14:47:05.481Z,13.21
2023-05-09T14:49:32.159Z,13.31
2023-05-09T14:51:58.758Z,13.01
2023-05-09T14:54:25.270Z,12.79
2023-05-09T14:56:51.957Z,12.89
2023-05-09T14:59:18.661Z,12.75
2023-05-09T15:01:45.516Z,12.75
2023-05-09T15:04:12.151Z,12.75
2023-05-09T15:06:40.128Z,12.96
2023-05-09T15:09:08.260Z,12.75
2023-05-09T15:11:46.889Z,12.80
2023-05-09T15:14:14.488Z,12.64
2023-05-09T15:16:41.732Z,12.76
2023-05-09T15:19:10.249Z,12.61
2023-05-09T15:21:36.786Z,12.57
2023-05-09T15:24:04.825Z,12.66
2023-05-09T15:26:31.355Z,12.60
2023-05-09T15:28:59.044Z,12.68
2023-05-09T15:31:26.822Z,12.46
2023-05-09T15:33:53.699Z,12.66
2023-05-09T15:36:20.617Z,12.65
2023-05-09T15:38:47.564Z,12.73
2023-05-09T15:41:14.413Z,12.58
2023-05-09T15:43:41.079Z,12.60
2023-05-09T15:46:07.708Z,12.72
2023-05-09T15:48:34.186Z,12.81
2023-05-09T15:51:00.669Z,12.71
2023-05-09T15:53:27.260Z,12.74
2023-05-09T15:55:54.291Z,12.76
2023-05-09T15:58:20.937Z,12.92
2023-05-09T16:00:47.583Z,12.75
2023-05-09T16:03:14.449Z,12.74
2023-05-09T16:05:41.092Z,12.68
2023-05-09T16:08:07.695Z,12.91
2023-05-09T16:10:34.216Z,12.98
2023-05-09T16:13:02.251Z,12.80
2023-05-09T16:15:28.804Z,12.90
2023-05-09T16:17:55.378Z,12.83
2023-05-09T16:20:21.973Z,12.95
2023-05-09T16:22:48.517Z,12.85
2023-05-09T16:25:17.226Z,12.83
2023-05-09T16:27:44.058Z,12.82
2023-05-09T16:30:10.999Z,12.85
2023-05-09T16:32:37.585Z,12.81
2023-05-09T16:35:04.480Z,12.80
2023-05-09T16:37:31.684Z,12.92
2023-05-09T16:39:59.345Z,13.03
2023-05-09T16:42:25.930Z,12.94
2023-05-09T16:44:52.449Z,13.12
2023-05-09T16:47:18.957Z,13.18
2023-05-09T16:49:45.572Z,13.12
2023-05-09T16:52:12.050Z,13.15
2023-05-09T16:54:40.026Z,13.11
2023-05-09T16:57:06.752Z,13.49
2023-05-09T16:59:33.327Z,13.17
2023-05-09T17:01:59.772Z,13.24
2023-05-09T17:04:26.317Z,13.14
2023-05-09T17:09:19.613Z,13.16
2023-05-09T17:11:46.502Z,13.16
2023-05-09T17:14:13.077Z,13.32
2023-05-09T17:16:39.677Z,13.26
2023-05-09T17:19:06.503Z,13.12
2023-05-09T17:21:34.614Z,13.02
2023-05-09T17:24:01.269Z,13.24
2023-05-09T17:26:27.919Z,13.33
2023-05-09T17:28:54.593Z,13.29
2023-05-09T17:31:21.084Z,13.19
2023-05-09T17:33:47.571Z,13.21
2023-05-09T17:36:14.136Z,13.15
2023-05-09T17:38:40.788Z,13.05
2023-05-09T17:41:07.687Z,13.20
2023-05-09T17:43:34.563Z,13.19
2023-05-09T17:46:03.631Z,13.16
2023-05-09T17:48:30.193Z,13.29
2023-05-09T17:50:56.775Z,13.13
2023-05-09T17:53:23.610Z,13.08
2023-05-09T17:55:50.501Z,13.04
2023-05-09T17:58:17.084Z,13.04
2023-05-09T18:00:45.964Z,13.05
2023-05-09T18:03:12.491Z,12.98
2023-05-09T18:05:39.390Z,13.19
2023-05-09T18:08:07.023Z,13.38
2023-05-09T18:10:33.559Z,13.11
2023-05-09T18:13:00.125Z,13.07
2023-05-09T18:15:26.618Z,13.23
2023-05-09T18:17:53.449Z,13.15
2023-05-09T18:20:20.485Z,12.84
2023-05-09T18:22:49.553Z,13.07
2023-05-09T18:25:17.267Z,13.12
2023-05-09T18:27:46.230Z,13.33
2023-05-09T18:30:14.397Z,13.15
2023-05-09T18:32:43.856Z,13.01
2023-05-09T18:35:12.941Z,12.89
2023-05-09T18:37:39.520Z,12.94
2023-05-09T18:40:06.779Z,13.09
2023-05-09T18:42:33.360Z,13.04
2023-05-09T18:44:59.935Z,12.95
2023-05-09T18:47:26.507Z,12.98
2023-05-09T18:49:53.011Z,13.05
2023-05-09T18:52:21.697Z,13.07
2023-05-09T18:54:48.154Z,12.91
2023-05-09T18:57:14.671Z,13.11
2023-05-09T18:59:41.542Z,12.97
2023-05-09T19:02:08.056Z,12.94
2023-05-09T19:04:35.036Z,12.96
2023-05-09T19:07:04.184Z,13.11
2023-05-09T19:09:30.837Z,13.05
2023-05-09T19:11:57.404Z,13.00
2023-05-09T19:14:23.962Z,13.14
2023-05-09T19:16:50.482Z,13.09
2023-05-09T19:19:16.989Z,13.15
2023-05-09T19:21:43.566Z,12.99
2023-05-09T19:24:10.043Z,13.06
2023-05-09T19:26:37.821Z,12.86
2023-05-09T19:29:04.485Z,13.02
2023-05-09T19:31:31.034Z,12.99
2023-05-09T19:33:57.547Z,13.14
2023-05-09T19:36:24.067Z,13.11
2023-05-09T19:38:50.583Z,13.17
2023-05-09T19:41:17.172Z,13.00
2023-05-09T19:43:44.192Z,13.12
2023-05-09T19:46:10.877Z,13.01
2023-05-09T19:48:37.432Z,13.06
2023-05-09T19:51:04.306Z,12.99
2023-05-09T19:53:30.907Z,13.17
2023-05-09T19:55:57.451Z,13.09
2023-05-09T19:58:24.057Z,13.02
2023-05-09T20:00:50.666Z,13.03
2023-05-09T20:03:17.272Z,13.19
2023-05-09T20:08:27.836Z,13.24
2023-05-09T20:10:54.392Z,13.17
2023-05-09T20:13:21.073Z,13.10
2023-05-09T20:15:48.030Z,13.16
2023-05-09T20:18:14.709Z,13.11
2023-05-09T20:20:41.372Z,12.97
2023-05-09T20:23:08.884Z,12.89
2023-05-09T20:25:35.432Z,12.92
2023-05-09T20:28:02.075Z,12.93
2023-05-09T20:30:28.606Z,12.81
2023-05-09T20:32:55.230Z,12.95
2023-05-09T20:35:21.913Z,12.81
2023-05-09T20:37:48.398Z,12.85
2023-05-09T20:40:15.214Z,12.90
2023-05-09T20:42:42.203Z,12.88
2023-05-09T20:45:09.436Z,12.91
2023-05-09T20:47:36.153Z,12.85
2023-05-09T20:50:02.962Z,12.81
2023-05-09T20:52:29.416Z,12.77
2023-05-09T20:54:55.869Z,12.94
2023-05-09T20:57:22.670Z,12.95
2023-05-09T20:59:49.532Z,13.00
2023-05-09T21:02:16.256Z,12.74
2023-05-09T21:04:42.869Z,12.75
2023-05-09T21:07:09.336Z,12.99
2023-05-09T21:09:36.085Z,12.94
2023-05-09T21:12:02.678Z,12.89
2023-05-09T21:14:29.383Z,13.00
2023-05-09T21:16:55.878Z,13.02
2023-05-09T21:21:48.903Z,13.07
2023-05-09T21:24:15.664Z,12.96
2023-05-09T21:26:42.192Z,12.84
2023-05-09T21:29:08.615Z,12.75
2023-05-09T21:31:35.970Z,12.75
2023-05-09T21:34:02.778Z,12.69
2023-05-09T21:36:29.493Z,12.89
2023-05-09T21:41:22.638Z,12.66
2023-05-09T21:43:50.587Z,12.64
2023-05-09T21:46:17.288Z,12.70
2023-05-09T21:48:43.781Z,12.69
2023-05-09T21:51:10.503Z,12.71
2023-05-09T21:53:36.936Z,12.71
2023-05-09T21:56:03.692Z,12.64
2023-05-09T21:58:30.213Z,12.56
2023-05-09T22:00:56.781Z,12.71
2023-05-09T22:03:23.390Z,12.60
2023-05-09T22:05:50.205Z,12.62
2023-05-09T22:08:16.701Z,12.61
2023-05-09T22:10:43.206Z,12.70
2023-05-09T22:13:10.729Z,12.37
2023-05-09T22:15:37.474Z,12.39
2023-05-09T22:18:04.251Z,12.31
2023-05-09T22:20:30.880Z,12.32
2023-05-09T22:22:57.328Z,12.27
2023-05-09T22:25:23.949Z,12.16
2023-05-09T22:27:50.403Z,12.15
2023-05-09T22:30:17.502Z,12.15
2023-05-09T22:32:44.237Z,12.10
2023-05-09T22:35:10.902Z,12.01
2023-05-09T22:37:37.535Z,12.04
2023-05-09T22:40:04.772Z,12.05
2023-05-09T22:42:31.480Z,12.03
2023-05-09T22:44:58.012Z,12.02
2023-05-09T22:47:24.742Z,12.14
2023-05-09T22:49:51.386Z,12.06
2023-05-09T22:52:17.950Z,12.06
2023-05-09T22:54:44.638Z,12.03
2023-05-09T22:57:11.866Z,12.04
2023-05-09T22:59:38.513Z,12.01
2023-05-09T23:02:05.142Z,12.14
2023-05-09T23:04:31.746Z,12.13
2023-05-09T23:07:00.789Z,12.18
2023-05-09T23:09:27.311Z,12.08
2023-05-09T23:11:54.066Z,12.11
2023-05-09T23:14:21.333Z,12.08
2023-05-09T23:16:47.906Z,12.12
2023-05-09T23:19:14.642Z,12.11
2023-05-09T23:21:41.257Z,12.10
2023-05-09T23:24:08.227Z,12.05
2023-05-09T23:26:34.794Z,12.12
2023-05-09T23:29:01.291Z,11.95
2023-05-09T23:31:28.113Z,11.85
2023-05-09T23:33:54.902Z,11.87
2023-05-09T23:36:21.382Z,11.83
2023-05-09T23:38:48.048Z,11.81
2023-05-09T23:41:14.777Z,11.82
2023-05-09T23:43:41.929Z,11.65
2023-05-09T23:46:08.621Z,11.72
2023-05-09T23:48:35.268Z,11.74
2023-05-09T23:51:02.003Z,11.66
2023-05-09T23:53:29.357Z,11.72
2023-05-09T23:55:55.817Z,11.77
2023-05-09T23:58:23.581Z,11.69
